Time;durP1;ratioP1;P1;durP2;ratioP2;P2;SDS_P1;SDS_P2;PMS_P1;PMS_P2;Temp;Humidity;BMP_temperature;BMP_pressure;BME280_temperature;BME280_humidity;BME280_pressure;Samples;Min_cycle;Max_cycle;Signal;HPM_P1;HPM_P2
2022/03/18 00:01:47;;;;;;;24.60;14.60;;;7.40;99.90;;;;;;4988580;28;20318;-82
2022/03/18 00:04:12;;;;;;;26.63;14.97;;;7.40;99.90;;;;;;4971686;28;20194;-83
2022/03/18 00:06:39;;;;;;;30.23;16.47;;;7.40;99.90;;;;;;4984066;28;20687;-83
2022/03/18 00:09:05;;;;;;;26.55;16.13;;;7.40;99.90;;;;;;4986174;28;20255;-82
2022/03/18 00:11:30;;;;;;;24.10;14.57;;;7.40;99.90;;;;;;4984563;28;20314;-82
2022/03/18 00:13:58;;;;;;;28.20;15.27;;;7.40;99.90;;;;;;4985753;28;20439;-82
2022/03/18 00:16:23;;;;;;;23.15;13.40;;;7.50;99.90;;;;;;4983110;28;20206;-82
2022/03/18 00:18:49;;;;;;;23.57;15.47;;;7.50;99.90;;;;;;4986191;28;20554;-83
2022/03/18 00:21:16;;;;;;;24.20;14.47;;;7.50;99.90;;;;;;4984082;28;20523;-81
2022/03/18 00:23:41;;;;;;;24.85;15.35;;;7.50;99.90;;;;;;4986983;28;20183;-82
2022/03/18 00:26:07;;;;;;;26.57;14.70;;;7.50;99.90;;;;;;4986383;28;20277;-83
2022/03/18 00:28:33;;;;;;;23.17;13.17;;;7.50;99.90;;;;;;4985255;28;20187;-82
2022/03/18 00:30:58;;;;;;;29.23;15.37;;;7.50;99.90;;;;;;4983493;28;20183;-82
2022/03/18 00:33:25;;;;;;;21.70;14.47;;;7.40;99.90;;;;;;4982764;28;20175;-82
2022/03/18 00:35:51;;;;;;;22.83;13.88;;;7.30;99.90;;;;;;4986409;28;20187;-82
2022/03/18 00:38:16;;;;;;;22.20;14.77;;;7.30;99.90;;;;;;4992669;28;20246;-82
2022/03/18 00:40:44;;;;;;;24.50;14.97;;;7.30;99.90;;;;;;4995370;28;20410;-82
2022/03/18 00:43:10;;;;;;;24.25;14.20;;;7.30;99.90;;;;;;4994512;28;20180;-82
2022/03/18 00:45:36;;;;;;;32.80;14.47;;;7.30;99.90;;;;;;4994548;28;20226;-82
2022/03/18 00:53:30;;;;;;;20.95;11.98;;;7.30;99.90;;;;;;4998298;28;20171;-82
2022/03/18 00:55:56;;;;;;;25.93;13.90;;;7.30;99.90;;;;;;4998688;28;20211;-82
2022/03/18 00:58:21;;;;;;;26.47;12.93;;;7.30;99.90;;;;;;4997438;28;20159;-82
2022/03/18 01:00:47;;;;;;;24.43;13.73;;;7.30;99.90;;;;;;4998755;28;20556;-82
2022/03/18 01:03:13;;;;;;;21.60;13.10;;;7.30;99.90;;;;;;4999035;28;20242;-82
2022/03/18 01:05:39;;;;;;;31.27;13.70;;;7.30;99.90;;;;;;4996656;28;20183;-82
2022/03/18 01:08:04;;;;;;;25.10;13.53;;;7.30;99.90;;;;;;4978830;28;20186;-82
2022/03/18 01:10:30;;;;;;;23.90;14.97;;;7.30;99.90;;;;;;4996994;28;20527;-82
2022/03/18 01:12:55;;;;;;;24.33;13.67;;;7.30;99.90;;;;;;4996817;28;20251;-82
2022/03/18 01:15:21;;;;;;;24.27;14.27;;;7.30;99.90;;;;;;4996458;28;20167;-83
2022/03/18 01:17:47;;;;;;;21.63;12.20;;;7.30;99.90;;;;;;4996841;28;20207;-81
2022/03/18 01:20:12;;;;;;;23.73;14.37;;;7.30;99.90;;;;;;4997141;28;20325;-82
2022/03/18 01:22:38;;;;;;;27.30;13.63;;;7.30;99.90;;;;;;4995996;28;20317;-82
2022/03/18 01:25:03;;;;;;;18.33;11.67;;;7.30;99.90;;;;;;4996898;28;20531;-82
2022/03/18 01:27:30;;;;;;;22.80;12.67;;;7.30;99.90;;;;;;4996915;28;20740;-82
2022/03/18 01:29:55;;;;;;;24.77;12.50;;;7.20;99.90;;;;;;4995063;28;20271;-83
2022/03/18 01:32:21;;;;;;;23.20;13.23;;;7.30;99.90;;;;;;4996280;28;20172;-82
2022/03/18 01:34:46;;;;;;;21.50;13.57;;;7.30;99.90;;;;;;4997185;28;20856;-82
2022/03/18 01:37:12;;;;;;;24.20;13.10;;;7.30;99.90;;;;;;4996807;28;20211;-83
2022/03/18 01:39:37;;;;;;;22.47;12.90;;;7.20;99.90;;;;;;4997273;28;20171;-83
2022/03/18 01:42:04;;;;;;;23.77;12.47;;;7.30;99.90;;;;;;4997750;28;20175;-82
2022/03/18 01:44:29;;;;;;;22.08;12.43;;;7.30;99.90;;;;;;4996873;28;20176;-83
2022/03/18 01:46:55;;;;;;;20.70;13.07;;;7.30;99.90;;;;;;4995694;28;20314;-82
2022/03/18 01:49:20;;;;;;;25.23;13.87;;;7.30;99.90;;;;;;4979214;28;20194;-83
2022/03/18 01:51:46;;;;;;;21.60;13.33;;;7.40;99.90;;;;;;4996185;28;20171;-83
2022/03/18 01:56:56;;;;;;;20.50;12.63;;;7.50;99.90;;;;;;4995820;28;20612;-84
2022/03/18 01:59:22;;;;;;;19.93;11.90;;;7.40;99.90;;;;;;4996008;28;20302;-82
2022/03/18 02:01:48;;;;;;;20.10;11.90;;;7.30;99.90;;;;;;4975911;28;20825;-83
2022/03/18 02:04:14;;;;;;;16.90;11.27;;;7.30;99.90;;;;;;4996680;28;20222;-83
2022/03/18 02:06:41;;;;;;;22.40;12.80;;;7.30;99.90;;;;;;4997582;28;20442;-83
2022/03/18 02:09:07;;;;;;;19.83;11.25;;;7.30;99.90;;;;;;4998325;28;20467;-83
2022/03/18 02:11:32;;;;;;;18.53;11.90;;;7.20;99.90;;;;;;4997918;28;20203;-83
2022/03/18 02:13:58;;;;;;;20.57;12.77;;;7.30;99.90;;;;;;4979464;28;20170;-83
2022/03/18 02:16:24;;;;;;;17.80;11.87;;;7.30;99.90;;;;;;4978871;28;20202;-83
2022/03/18 02:18:49;;;;;;;16.37;10.90;;;7.20;99.90;;;;;;4979498;28;20186;-83
2022/03/18 02:21:15;;;;;;;16.70;11.80;;;7.30;99.90;;;;;;4979329;28;20517;-82
2022/03/18 02:23:43;;;;;;;16.00;10.10;;;7.30;99.90;;;;;;4996418;28;20179;-83
2022/03/18 02:26:13;;;;;;;24.05;10.48;;;7.20;99.90;;;;;;4997208;28;20458;-84
2022/03/18 02:28:39;;;;;;;17.45;9.80;;;7.30;99.90;;;;;;4979910;28;20226;-83
2022/03/18 02:31:04;;;;;;;15.50;10.23;;;7.40;99.90;;;;;;4997788;28;20552;-83
2022/03/18 02:33:30;;;;;;;18.43;11.00;;;7.40;99.90;;;;;;4997474;28;20587;-83
2022/03/18 02:35:55;;;;;;;15.67;10.57;;;7.40;99.90;;;;;;4998022;28;20175;-83
2022/03/18 02:38:21;;;;;;;18.57;11.20;;;7.30;99.90;;;;;;4997487;28;20167;-82
2022/03/18 02:40:46;;;;;;;17.00;11.10;;;7.30;99.90;;;;;;4997837;28;20214;-82
2022/03/18 02:43:12;;;;;;;18.97;12.57;;;7.30;99.90;;;;;;4997348;28;20186;-83
2022/03/18 02:45:38;;;;;;;15.40;10.40;;;7.40;99.90;;;;;;4997210;28;20210;-82
2022/03/18 02:48:04;;;;;;;18.00;11.13;;;7.30;99.90;;;;;;4978699;28;20945;-83
2022/03/18 02:50:30;;;;;;;16.65;10.80;;;7.40;99.90;;;;;;4994190;28;20427;-83
2022/03/18 02:52:55;;;;;;;19.43;10.10;;;7.30;99.90;;;;;;4994728;28;20540;-84
2022/03/18 02:55:21;;;;;;;17.53;10.27;;;7.40;99.90;;;;;;4994603;28;20481;-84
2022/03/18 02:57:46;;;;;;;21.33;10.30;;;7.40;99.90;;;;;;4994311;28;20199;-83
2022/03/18 03:00:12;;;;;;;11.87;8.97;;;7.50;99.90;;;;;;4994197;28;21072;-83
2022/03/18 03:02:38;;;;;;;17.03;9.87;;;7.40;99.90;;;;;;4993769;28;20608;-83
2022/03/18 03:08:00;;;;;;;17.95;10.02;;;7.40;99.90;;;;;;4996589;28;20201;-83
2022/03/18 03:10:33;;;;;;;15.25;9.25;;;7.50;99.90;;;;;;4996683;28;20342;-83
2022/03/18 03:13:01;;;;;;;14.73;9.45;;;7.40;99.90;;;;;;4996013;28;20163;-83
2022/03/18 03:15:28;;;;;;;14.55;9.73;;;7.40;99.90;;;;;;4996429;28;20410;-84
2022/03/18 03:17:54;;;;;;;16.48;8.88;;;7.50;99.90;;;;;;4997686;28;20226;-83
2022/03/18 03:20:20;;;;;;;16.10;8.77;;;7.40;99.90;;;;;;4981269;28;20209;-83
2022/03/18 03:22:45;;;;;;;13.85;8.90;;;7.40;99.90;;;;;;4995985;28;20419;-83
2022/03/18 03:25:11;;;;;;;16.97;9.40;;;7.40;99.90;;;;;;4998635;28;20186;-83
2022/03/18 03:27:37;;;;;;;16.07;8.23;;;7.40;99.90;;;;;;4979940;28;20943;-83
2022/03/18 03:30:08;;;;;;;13.47;8.27;;;7.40;99.90;;;;;;4991612;28;20648;-82
2022/03/18 03:32:33;;;;;;;14.55;9.25;;;7.40;99.90;;;;;;4988032;28;20640;-82
2022/03/18 03:34:59;;;;;;;14.30;8.70;;;7.40;99.90;;;;;;4989946;28;20181;-83
2022/03/18 03:37:26;;;;;;;12.90;8.93;;;7.40;99.90;;;;;;4989202;28;20254;-84
2022/03/18 03:39:52;;;;;;;17.38;8.00;;;7.30;99.90;;;;;;4986579;28;20188;-84
2022/03/18 03:42:18;;;;;;;12.00;8.83;;;7.30;99.90;;;;;;4976068;28;20318;-84
2022/03/18 03:44:43;;;;;;;11.93;7.70;;;7.30;99.90;;;;;;4976701;28;20207;-84
2022/03/18 03:47:09;;;;;;;16.17;8.20;;;7.30;99.90;;;;;;4977992;28;20462;-83
2022/03/18 03:49:34;;;;;;;18.53;8.80;;;7.30;99.90;;;;;;4976632;28;20196;-83
2022/03/18 03:52:00;;;;;;;12.00;7.90;;;7.40;99.90;;;;;;4976381;28;20172;-83
2022/03/18 03:54:27;;;;;;;13.50;7.07;;;7.40;99.90;;;;;;4976910;28;20227;-84
2022/03/18 03:56:54;;;;;;;14.95;9.88;;;7.40;99.90;;;;;;4977976;28;20699;-84
2022/03/18 03:59:20;;;;;;;10.15;7.13;;;7.40;99.90;;;;;;4978461;28;20168;-83
2022/03/18 04:01:46;;;;;;;12.55;8.15;;;7.30;99.90;;;;;;4978932;28;20166;-83
2022/03/18 04:04:12;;;;;;;16.23;8.83;;;7.30;99.90;;;;;;4978962;28;20172;-85
2022/03/18 04:06:37;;;;;;;18.60;10.03;;;7.30;99.90;;;;;;4977851;28;21049;-84
2022/03/18 04:09:03;;;;;;;12.40;7.33;;;7.30;99.90;;;;;;4976082;28;20191;-83
2022/03/18 04:11:30;;;;;;;14.67;9.23;;;7.30;99.90;;;;;;4979349;28;20164;-83
2022/03/18 04:13:55;;;;;;;14.15;8.77;;;7.30;99.90;;;;;;4977165;28;20423;-84
2022/03/18 04:16:21;;;;;;;13.23;8.40;;;7.20;99.90;;;;;;4978811;28;20558;-83
2022/03/18 04:18:47;;;;;;;17.67;9.90;;;7.20;99.90;;;;;;4978785;28;20571;-82
2022/03/18 04:21:13;;;;;;;15.80;7.78;;;7.10;99.90;;;;;;4978629;28;20306;-82
2022/03/18 04:23:39;;;;;;;14.88;9.50;;;7.20;99.90;;;;;;4978137;28;20168;-82
2022/03/18 04:26:05;;;;;;;11.20;7.87;;;7.30;99.90;;;;;;4979121;28;20204;-82
2022/03/18 04:28:30;;;;;;;14.77;7.93;;;7.30;99.90;;;;;;4983751;28;20437;-82
2022/03/18 04:30:56;;;;;;;11.03;7.27;;;7.30;99.90;;;;;;4982388;28;20242;-84
2022/03/18 04:33:22;;;;;;;17.00;9.83;;;7.30;99.90;;;;;;4979981;28;20255;-83
2022/03/18 04:35:48;;;;;;;15.90;9.70;;;7.20;99.90;;;;;;4980314;28;20247;-83
2022/03/18 04:38:13;;;;;;;16.60;10.37;;;7.20;99.90;;;;;;4977540;28;20435;-83
2022/03/18 04:40:39;;;;;;;13.87;8.30;;;7.20;99.90;;;;;;4979572;28;20192;-84
2022/03/18 04:43:04;;;;;;;15.03;8.47;;;7.20;99.90;;;;;;4979092;28;20168;-84
2022/03/18 04:45:30;;;;;;;16.00;9.60;;;7.20;99.90;;;;;;4981211;28;20762;-84
2022/03/18 04:47:56;;;;;;;12.17;8.43;;;7.20;99.90;;;;;;4979542;28;20202;-82
2022/03/18 04:50:22;;;;;;;16.92;9.32;;;7.20;99.90;;;;;;4981848;28;20172;-82
2022/03/18 04:52:47;;;;;;;14.57;9.80;;;7.30;99.90;;;;;;4979603;28;20695;-83
2022/03/18 04:55:13;;;;;;;14.20;9.07;;;7.30;99.90;;;;;;4981613;28;20239;-83
2022/03/18 04:57:39;;;;;;;14.37;9.27;;;7.30;99.90;;;;;;4988652;28;20273;-83
2022/03/18 05:00:05;;;;;;;15.87;9.43;;;7.20;99.90;;;;;;4983084;28;20178;-83
2022/03/18 05:02:31;;;;;;;14.25;8.60;;;7.30;99.90;;;;;;4999787;28;20410;-84
2022/03/18 05:04:57;;;;;;;10.93;7.67;;;7.30;99.90;;;;;;4999186;28;20198;-84
2022/03/18 05:07:24;;;;;;;12.70;9.00;;;7.30;99.90;;;;;;4980736;28;20211;-83
2022/03/18 05:09:49;;;;;;;13.98;8.90;;;7.30;99.90;;;;;;4999825;28;20402;-82
2022/03/18 05:12:16;;;;;;;17.40;9.70;;;7.30;99.90;;;;;;5000627;28;20545;-83
2022/03/18 05:14:42;;;;;;;16.73;9.13;;;7.20;99.90;;;;;;4983332;28;20522;-83
2022/03/18 05:17:09;;;;;;;14.80;9.93;;;7.10;99.90;;;;;;4993118;28;20214;-82
2022/03/18 05:19:36;;;;;;;16.50;8.98;;;7.00;99.90;;;;;;4988695;28;20175;-82
2022/03/18 05:22:02;;;;;;;18.42;10.55;;;6.90;99.90;;;;;;4988756;28;20207;-83
2022/03/18 05:24:27;;;;;;;16.70;10.18;;;6.90;99.90;;;;;;4991496;28;20175;-82
2022/03/18 05:26:54;;;;;;;20.90;9.50;;;6.90;99.90;;;;;;4977575;28;20219;-82
2022/03/18 05:29:20;;;;;;;17.60;10.13;;;6.90;99.90;;;;;;4991222;28;20553;-80
2022/03/18 05:31:46;;;;;;;14.52;9.32;;;6.90;99.90;;;;;;4990146;28;20755;-81
2022/03/18 05:34:13;;;;;;;13.40;9.10;;;6.90;99.90;;;;;;4989960;28;20302;-81
2022/03/18 05:36:39;;;;;;;17.17;10.48;;;6.90;99.90;;;;;;4969032;28;20844;-81
2022/03/18 05:39:05;;;;;;;17.38;10.07;;;6.90;99.90;;;;;;4987057;28;20198;-81
2022/03/18 05:41:31;;;;;;;17.23;11.00;;;6.80;99.90;;;;;;4995900;28;20695;-81
2022/03/18 05:43:57;;;;;;;19.25;10.13;;;6.90;99.90;;;;;;4988918;28;20663;-81
2022/03/18 05:46:23;;;;;;;20.13;11.30;;;7.00;99.90;;;;;;4992121;28;20211;-80
2022/03/18 05:48:48;;;;;;;19.77;10.80;;;7.00;99.90;;;;;;4986283;28;20246;-81
2022/03/18 05:51:14;;;;;;;16.63;9.83;;;7.00;99.90;;;;;;4985671;28;20198;-82
2022/03/18 05:53:39;;;;;;;17.20;10.30;;;7.00;99.90;;;;;;4973589;28;20237;-82
2022/03/18 05:58:50;;;;;;;17.60;10.73;;;7.00;99.90;;;;;;4967604;28;20206;-82
2022/03/18 06:01:15;;;;;;;19.98;11.70;;;6.90;99.90;;;;;;4970246;28;20219;-81
2022/03/18 06:03:41;;;;;;;19.17;10.80;;;7.00;99.90;;;;;;4971925;28;20286;-81
2022/03/18 06:06:07;;;;;;;19.13;10.57;;;7.00;99.90;;;;;;4972509;28;20720;-81
2022/03/18 06:14:01;;;;;;;21.15;10.27;;;7.00;99.90;;;;;;4967277;28;20202;-81
2022/03/18 06:16:27;;;;;;;20.60;11.63;;;7.10;99.90;;;;;;4975978;28;20207;-81
2022/03/18 06:18:55;;;;;;;21.70;10.67;;;7.20;99.90;;;;;;4948991;28;20329;-81
2022/03/18 06:21:27;;;;;;;16.33;10.80;;;7.20;99.90;;;;;;4956213;28;20199;-81
2022/03/18 06:23:53;;;;;;;18.92;10.50;;;7.30;99.90;;;;;;4957411;28;20187;-81
2022/03/18 06:26:19;;;;;;;20.13;10.33;;;7.10;99.90;;;;;;4956028;28;20453;-81
2022/03/18 06:28:44;;;;;;;21.45;11.18;;;7.30;99.90;;;;;;4973315;28;20543;-81
2022/03/18 06:31:10;;;;;;;19.00;10.93;;;7.50;99.90;;;;;;4974921;28;20191;-82
2022/03/18 06:33:43;;;;;;;19.40;11.10;;;7.60;99.90;;;;;;4976273;28;20189;-81
2022/03/18 06:36:09;;;;;;;19.08;10.40;;;7.70;99.90;;;;;;4959271;28;20211;-81
2022/03/18 06:41:03;;;;;;;18.13;10.50;;;7.80;99.90;;;;;;4988333;28;20203;-86
2022/03/18 06:43:28;;;;;;;17.30;9.33;;;7.80;99.90;;;;;;4990578;28;20204;-84
2022/03/18 06:45:55;;;;;;;21.40;11.20;;;7.80;99.90;;;;;;4972721;28;20198;-86
2022/03/18 06:48:21;;;;;;;18.80;10.05;;;7.80;99.90;;;;;;4978045;28;20202;-86
2022/03/18 06:50:46;;;;;;;16.67;10.37;;;7.90;99.90;;;;;;5001332;28;20179;-86
2022/03/18 06:53:12;;;;;;;15.17;9.40;;;8.00;99.90;;;;;;4970574;28;20180;-86
2022/03/18 06:55:38;;;;;;;22.40;12.07;;;8.10;99.90;;;;;;4974588;28;20227;-86
2022/03/18 06:58:03;;;;;;;18.03;10.13;;;8.10;99.90;;;;;;4976361;28;20671;-85
2022/03/18 07:00:29;;;;;;;23.47;11.67;;;8.10;99.90;;;;;;4993637;28;20159;-85
2022/03/18 07:02:55;;;;;;;18.50;10.70;;;8.10;99.90;;;;;;4974085;28;20187;-86
2022/03/18 07:05:21;;;;;;;24.40;12.10;;;8.00;99.90;;;;;;4971692;28;20187;-86
2022/03/18 07:07:48;;;;;;;22.60;11.60;;;7.90;99.90;;;;;;4972687;28;20206;-86
2022/03/18 07:10:14;;;;;;;26.35;12.75;;;7.90;99.90;;;;;;4975803;28;20186;-86
2022/03/18 07:12:39;;;;;;;35.10;13.93;;;7.90;99.90;;;;;;4990726;28;20207;-86
2022/03/18 07:15:07;;;;;;;23.17;12.90;;;7.90;99.90;;;;;;4988510;28;20262;-85
2022/03/18 07:20:16;;;;;;;26.48;13.80;;;8.20;99.90;;;;;;4987752;28;20185;-86
2022/03/18 07:22:42;;;;;;;26.20;16.07;;;7.80;99.90;;;;;;4971116;28;20702;-86
2022/03/18 07:25:09;;;;;;;27.53;13.67;;;7.70;99.90;;;;;;4969396;28;20194;-85
2022/03/18 07:27:35;;;;;;;27.55;14.43;;;7.70;99.90;;;;;;4985205;28;20212;-86
2022/03/18 07:30:05;;;;;;;21.63;12.67;;;7.70;99.90;;;;;;4973959;28;20891;-86
2022/03/18 07:32:31;;;;;;;22.65;10.05;;;7.70;99.90;;;;;;4992624;28;20258;-85
2022/03/18 07:34:56;;;;;;;25.87;11.83;;;7.70;99.90;;;;;;4989312;28;21671;-85
2022/03/18 07:37:24;;;;;;;21.93;12.67;;;7.80;99.90;;;;;;4969231;28;20856;-86
2022/03/18 07:39:49;;;;;;;21.48;10.60;;;7.80;99.90;;;;;;4967339;28;20257;-85
2022/03/18 07:42:15;;;;;;;22.07;12.93;;;7.70;99.90;;;;;;4968334;28;20194;-84
2022/03/18 07:44:40;;;;;;;21.57;10.60;;;7.60;99.90;;;;;;4969399;28;20215;-86
2022/03/18 07:47:06;;;;;;;28.57;10.90;;;7.70;99.90;;;;;;4985866;28;20301;-86
2022/03/18 07:49:32;;;;;;;20.15;10.38;;;7.60;99.90;;;;;;4985626;28;20267;-86
2022/03/18 07:51:57;;;;;;;23.30;11.87;;;7.70;99.90;;;;;;4988510;28;20921;-86
2022/03/18 07:54:23;;;;;;;21.27;10.33;;;7.60;99.90;;;;;;4968615;28;20174;-85
2022/03/18 07:56:50;;;;;;;26.17;11.20;;;7.60;99.90;;;;;;4970325;28;20221;-85
2022/03/18 07:59:16;;;;;;;21.58;10.52;;;7.60;99.90;;;;;;4970288;28;20266;-86
2022/03/18 08:01:42;;;;;;;20.97;11.53;;;7.70;99.90;;;;;;4989554;28;20249;-86
2022/03/18 08:04:12;;;;;;;28.27;12.93;;;;;;;;;;4971121;28;20207;-86
2022/03/18 08:06:38;;;;;;;24.23;12.93;;;7.60;99.90;;;;;;4990799;28;20199;-85
2022/03/18 08:09:04;;;;;;;19.60;10.50;;;7.80;99.90;;;;;;4988350;28;20719;-85
2022/03/18 08:11:30;;;;;;;21.17;10.15;;;7.70;99.90;;;;;;4969609;28;20183;-86
2022/03/18 08:13:56;;;;;;;22.50;10.53;;;7.90;99.90;;;;;;4971094;28;20187;-86
2022/03/18 08:16:23;;;;;;;24.42;11.75;;;7.90;99.90;;;;;;4970713;28;20183;-85
2022/03/18 08:18:51;;;;;;;29.65;13.20;;;8.10;99.90;;;;;;4987185;28;20530;-84
2022/03/18 08:21:16;;;;;;;27.40;9.90;;;8.10;99.90;;;;;;4973040;28;20691;-86
2022/03/18 08:23:42;;;;;;;24.97;11.60;;;8.20;99.90;;;;;;4986540;28;20195;-85
2022/03/18 08:26:08;;;;;;;25.07;12.13;;;8.30;99.90;;;;;;4971480;28;20225;-86
2022/03/18 08:28:33;;;;;;;28.43;11.70;;;8.30;99.90;;;;;;4986945;28;20564;-85
2022/03/18 08:30:59;;;;;;;27.47;10.93;;;8.20;99.90;;;;;;4990404;28;20179;-85
2022/03/18 08:33:25;;;;;;;29.03;14.07;;;8.30;99.90;;;;;;4972630;28;20175;-85
2022/03/18 08:35:50;;;;;;;20.70;12.20;;;8.30;99.90;;;;;;4989715;28;20182;-84
2022/03/18 08:38:16;;;;;;;24.33;11.23;;;8.50;99.90;;;;;;4989224;28;20211;-84
2022/03/18 08:40:42;;;;;;;22.00;11.27;;;8.40;99.90;;;;;;4990110;28;20205;-84
2022/03/18 08:43:09;;;;;;;22.40;12.33;;;8.40;99.90;;;;;;4971000;28;20190;-85
2022/03/18 08:45:35;;;;;;;23.25;12.00;;;8.60;99.90;;;;;;4971796;28;20482;-85
2022/03/18 08:48:02;;;;;;;29.70;11.80;;;8.70;99.90;;;;;;4990517;28;20196;-85
2022/03/18 08:50:28;;;;;;;24.70;10.18;;;8.70;99.90;;;;;;4988945;28;20184;-85
2022/03/18 08:52:55;;;;;;;29.97;12.70;;;8.60;99.90;;;;;;4975339;28;20655;-87
2022/03/18 08:55:21;;;;;;;23.85;12.07;;;8.60;99.90;;;;;;4985805;28;20555;-87
2022/03/18 08:57:47;;;;;;;20.70;10.93;;;8.70;99.90;;;;;;4987382;28;20213;-86
2022/03/18 09:00:15;;;;;;;20.97;11.10;;;8.60;99.90;;;;;;4986997;28;20180;-85
2022/03/18 09:02:43;;;;;;;21.77;12.02;;;8.70;99.90;;;;;;4990358;28;20430;-87
2022/03/18 09:05:09;;;;;;;28.02;14.30;;;8.70;99.90;;;;;;4982860;28;20191;-85
2022/03/18 09:07:36;;;;;;;23.88;13.05;;;8.70;99.90;;;;;;4985781;28;20293;-85
2022/03/18 09:10:07;;;;;;;22.40;12.75;;;8.60;99.90;;;;;;4969281;28;20183;-85
2022/03/18 09:12:32;;;;;;;23.13;11.50;;;8.70;99.90;;;;;;4986707;28;20176;-85
2022/03/18 09:14:58;;;;;;;27.17;14.33;;;8.70;99.90;;;;;;4974207;28;20202;-85
2022/03/18 09:17:24;;;;;;;26.47;13.50;;;8.70;99.90;;;;;;4958899;28;20203;-87
2022/03/18 09:19:51;;;;;;;26.43;13.80;;;8.80;99.90;;;;;;4971940;28;21019;-85
2022/03/18 09:22:17;;;;;;;33.15;13.25;;;8.90;99.90;;;;;;4991110;28;20470;-86
2022/03/18 09:24:45;;;;;;;36.23;15.00;;;9.10;99.90;;;;;;4991460;28;20221;-87
2022/03/18 09:27:10;;;;;;;23.63;11.60;;;9.40;99.90;;;;;;4990774;28;20218;-86
2022/03/18 09:29:37;;;;;;;25.00;13.67;;;9.60;99.90;;;;;;4972544;28;20188;-84
2022/03/18 09:32:04;;;;;;;33.03;13.60;;;9.80;99.90;;;;;;4973248;28;20237;-86
2022/03/18 09:34:29;;;;;;;27.25;12.43;;;10.10;99.90;;;;;;4992498;28;20180;-87
2022/03/18 09:36:57;;;;;;;31.67;14.70;;;10.10;99.90;;;;;;4975975;28;20210;-87
2022/03/18 09:39:24;;;;;;;31.25;14.18;;;10.20;99.90;;;;;;4992379;28;20312;-87
2022/03/18 09:41:50;;;;;;;30.73;15.15;;;10.30;99.90;;;;;;4975308;28;20776;-86
2022/03/18 09:44:17;;;;;;;34.97;15.80;;;10.50;99.90;;;;;;4972470;28;20711;-86
2022/03/18 09:46:47;;;;;;;36.63;17.23;;;10.80;99.90;;;;;;4993985;28;20740;-87
2022/03/18 09:49:14;;;;;;;28.17;15.02;;;10.80;99.90;;;;;;4976646;28;20187;-86
2022/03/18 09:51:48;;;;;;;31.42;17.05;;;11.10;99.90;;;;;;4975584;28;20571;-86
2022/03/18 09:54:14;;;;;;;35.75;18.13;;;10.80;99.90;;;;;;4979661;28;20409;-86
2022/03/18 09:56:43;;;;;;;29.33;17.50;;;11.10;99.90;;;;;;4993083;28;20187;-86
2022/03/18 09:59:10;;;;;;;28.13;16.77;;;11.10;99.90;;;;;;4978480;28;20210;-85
2022/03/18 10:01:36;;;;;;;36.92;16.80;;;11.10;99.90;;;;;;4993364;28;20258;-86
2022/03/18 10:04:05;;;;;;;41.40;20.17;;;11.00;99.90;;;;;;4990377;28;20179;-86
2022/03/18 10:06:32;;;;;;;41.92;20.45;;;11.00;99.90;;;;;;4976588;28;20213;-87
2022/03/18 10:08:59;;;;;;;29.50;15.90;;;11.00;99.90;;;;;;4993442;28;20178;-86
2022/03/18 10:11:32;;;;;;;34.05;16.67;;;10.80;99.90;;;;;;4977403;28;20707;-87
2022/03/18 10:14:01;;;;;;;37.35;18.65;;;10.80;99.90;;;;;;4974970;28;20187;-87
2022/03/18 10:16:47;;;;;;;38.05;19.65;;;9.80;99.90;;;;;;5043488;28;20563;-91
2022/03/18 10:19:45;;;;;;;35.08;18.52;;;14.00;99.90;;;;;;5025724;28;20210;-91
2022/03/18 10:22:17;;;;;;;44.80;23.10;;;10.60;99.90;;;;;;5015893;28;20198;-90
2022/03/18 10:24:46;;;;;;;39.58;20.15;;;;;;;;;;5011493;28;20306;-90
2022/03/18 10:27:15;;;;;;;40.95;21.85;;;;;;;;;;4998828;28;20262;-91
2022/03/18 10:29:46;;;;;;;32.65;17.25;;;10.30;99.90;;;;;;5008743;28;20183;-91
2022/03/18 10:32:12;;;;;;;35.33;18.65;;;;;;;;;;4991633;28;20182;-89
2022/03/18 10:37:40;;;;;;;38.95;19.85;;;10.60;99.90;;;;;;4992973;28;20244;-91
2022/03/18 10:40:06;;;;;;;39.90;19.92;;;10.80;99.90;;;;;;5001262;28;20270;-90
2022/03/18 10:42:32;;;;;;;33.27;18.50;;;;;;;;;;5004266;28;20229;-90
2022/03/18 10:45:00;;;;;;;35.20;18.67;;;11.00;99.90;;;;;;5006099;28;20457;-90
2022/03/18 10:47:26;;;;;;;30.52;15.88;;;11.20;99.90;;;;;;4989380;28;20265;-90
2022/03/18 10:50:21;;;;;;;39.05;20.73;;;11.20;99.90;;;;;;4986415;28;20231;-90
2022/03/18 10:52:50;;;;;;;40.83;20.00;;;11.20;99.90;;;;;;5007612;28;20251;-90
2022/03/18 10:55:26;;;;;;;34.40;18.27;;;11.40;99.90;;;;;;5006742;28;20684;-91
2022/03/18 10:58:10;;;;;;;41.72;20.95;;;11.70;99.90;;;;;;5007918;28;20253;-91
2022/03/18 11:00:39;;;;;;;35.80;17.10;;;12.20;99.90;;;;;;4996260;28;20837;-89
2022/03/18 11:03:22;;;;;;;33.53;17.98;;;12.40;99.90;;;;;;4992074;28;21055;-89
2022/03/18 11:05:51;;;;;;;35.17;19.15;;;12.50;99.90;;;;;;4988176;28;20217;-91
2022/03/18 11:08:22;;;;;;;42.78;22.05;;;12.30;99.90;;;;;;4985711;28;20198;-90
2022/03/18 11:11:14;;;;;;;41.35;20.48;;;12.30;99.90;;;;;;5002417;28;20187;-91
2022/03/18 11:13:51;;;;;;;29.60;18.10;;;12.40;99.90;;;;;;4991036;28;20190;-90
2022/03/18 11:16:23;;;;;;;41.03;21.20;;;12.30;99.90;;;;;;5001999;28;20211;-91
2022/03/18 11:19:00;;;;;;;31.65;16.77;;;12.40;99.90;;;;;;4998171;28;20218;-91
2022/03/18 11:21:35;;;;;;;38.85;18.27;;;;;;;;;;4985721;28;20186;-90
2022/03/18 11:24:12;;;;;;;36.03;20.65;;;12.80;99.90;;;;;;5001820;28;20734;-92
2022/03/18 11:26:56;;;;;;;38.28;19.83;;;13.30;99.90;;;;;;4983320;28;20218;-91
2022/03/18 11:29:27;;;;;;;37.60;18.90;;;13.40;99.90;;;;;;4976388;28;20707;-91
2022/03/18 11:32:17;;;;;;;36.22;16.15;;;12.90;99.90;;;;;;4976273;28;20190;-91
2022/03/18 11:34:52;;;;;;;36.25;16.65;;;12.60;99.90;;;;;;4995662;28;20223;-91
2022/03/18 11:37:20;;;;;;;32.95;19.60;;;12.60;99.90;;;;;;4976621;28;20311;-90
2022/03/18 11:39:49;;;;;;;30.73;18.20;;;;;;;;;;4977075;28;20197;-91
2022/03/18 11:42:22;;;;;;;33.45;18.10;;;12.10;99.90;;;;;;4966262;28;20263;-90
2022/03/18 11:44:59;;;;;;;34.17;17.17;;;11.40;99.90;;;;;;4966522;28;20294;-88
2022/03/18 11:47:30;;;;;;;27.88;15.80;;;;;;;;;;4968670;28;20191;-90
2022/03/18 11:50:02;;;;;;;29.67;16.67;;;12.20;99.90;;;;;;4984116;28;20707;-91
2022/03/18 11:52:31;;;;;;;37.30;17.08;;;12.10;99.90;;;;;;4967877;28;20208;-90
2022/03/18 11:55:01;;;;;;;40.45;18.83;;;12.50;99.90;;;;;;4972013;28;20219;-90
2022/03/18 11:57:41;;;;;;;36.67;20.88;;;12.30;99.90;;;;;;4986967;28;20193;-90
2022/03/18 12:00:35;;;;;;;39.40;22.67;;;12.30;99.90;;;;;;4970133;28;20752;-89
2022/03/18 12:03:04;;;;;;;41.33;20.42;;;12.50;99.90;;;;;;4985131;28;20319;-91
2022/03/18 12:05:34;;;;;;;38.30;20.58;;;12.70;99.90;;;;;;4977327;28;20265;-90
2022/03/18 12:08:00;;;;;;;32.35;18.55;;;;;;;;;;4960075;28;20183;-90
2022/03/18 12:10:33;;;;;;;36.57;18.60;;;12.40;99.90;;;;;;4979486;28;20188;-89
2022/03/18 12:13:02;;;;;;;40.45;20.48;;;;;;;;;;4964385;28;20439;-90
2022/03/18 12:15:36;;;;;;;40.00;19.80;;;12.10;99.90;;;;;;4981500;28;20215;-90
2022/03/18 12:18:04;;;;;;;36.25;19.65;;;15.40;99.90;;;;;;4966954;28;20180;-90
2022/03/18 12:20:37;;;;;;;33.53;18.63;;;12.20;99.90;;;;;;4962017;28;20732;-88
2022/03/18 12:23:07;;;;;;;41.42;19.67;;;12.20;99.90;;;;;;4981174;28;20193;-91
2022/03/18 12:25:36;;;;;;;36.25;20.48;;;12.10;99.90;;;;;;4966895;28;20998;-90
2022/03/18 12:28:02;;;;;;;37.88;18.60;;;12.00;99.90;;;;;;4974309;28;20266;-90
2022/03/18 12:30:30;;;;;;;31.77;20.02;;;12.10;99.90;;;;;;4972762;28;20683;-90
2022/03/18 12:33:08;;;;;;;33.70;19.58;;;12.20;99.90;;;;;;4977486;28;20183;-90
2022/03/18 12:35:43;;;;;;;32.08;18.02;;;12.40;99.90;;;;;;4977898;28;20888;-89
2022/03/18 12:38:09;;;;;;;30.98;16.20;;;;;;;;;;4979813;28;20207;-90
2022/03/18 12:40:40;;;;;;;34.80;18.03;;;11.90;99.90;;;;;;4975460;28;20271;-89
2022/03/18 12:43:07;;;;;;;34.67;18.48;;;12.00;99.90;;;;;;4964527;28;20845;-91
2022/03/18 12:45:48;;;;;;;32.95;16.92;;;11.90;99.90;;;;;;4963317;28;20206;-89
2022/03/18 12:48:20;;;;;;;39.38;20.00;;;11.70;99.90;;;;;;4963402;28;20179;-89
2022/03/18 12:50:48;;;;;;;36.78;20.10;;;11.70;99.90;;;;;;4979731;28;20226;-88
2022/03/18 12:53:18;;;;;;;31.85;18.33;;;11.90;99.90;;;;;;4964745;28;20195;-89
2022/03/18 12:55:46;;;;;;;29.92;17.65;;;11.90;99.90;;;;;;4972609;28;20203;-89
2022/03/18 12:58:13;;;;;;;38.38;18.88;;;11.90;99.90;;;;;;4979382;28;20194;-87
2022/03/18 13:00:44;;;;;;;28.10;17.75;;;11.50;99.90;;;;;;4967716;28;20238;-90
2022/03/18 13:03:19;;;;;;;26.35;17.30;;;11.80;99.90;;;;;;4986575;28;20202;-88
2022/03/18 13:05:46;;;;;;;33.05;16.85;;;14.00;99.90;;;;;;4969965;28;20323;-90
2022/03/18 13:08:15;;;;;;;30.60;18.90;;;;;;;;;;4962285;28;20198;-88
2022/03/18 13:10:41;;;;;;;31.23;19.50;;;;;;;;;;4966418;28;20192;-86